Alice Springs, Australia

7:20 PM ACST on October 22, 2019 (GMT +0930)
Alice Springs

Weather History for YBAS - August, 2019

Change the Weather History Date:

Thursday, August 1, 2019

  Actual Average Record
Temperature  
Mean Temperature 52 °F -  
Max Temperature 64 °F 72 °F 84 °F (2007)
Min Temperature 41 °F 43 °F 25 °F (2012)
Degree Days  
Heating Degree Days 12    
Growing Degree Days 2 (Base 50)    
Moisture  
Dew Point 34 °F    
Average Humidity 44    
Maximum Humidity 76    
Minimum Humidity 20    
Precipitation  
Precipitation 0.00 in 0.02 in - ()
Sea Level Pressure  
Sea Level Pressure 30.39 in    
Wind  
Wind Speed 9 mph ()    
Max Wind Speed 17 mph    
Max Gust Speed -    
Visibility 6.2 miles    
Events      
Averages and records for this station are not official NWS values.
T = Trace of Precipitation, MM = Missing Value Source: Averaged Metar Reports

Daily Weather History Graph

Daily Weather History Graph

Search for Another Location

Airport or City:

Astronomy

Aug. 01, 2019 Rise Set
Actual Time 7:10 AM ACST 6:11 PM ACST
Civil Twilight 6:46 AM ACST 6:35 PM ACST
Nautical Twilight 6:19 AM ACST 7:02 PM ACST
Astronomical Twilight 5:52 AM ACST 7:29 PM ACST
Moon 7:08 AM ACST (8/1) 6:20 PM ACST (8/1)
Length of Visible Light 11h 48m
Length of Day
11h 01m
Waning Crescent, 0% of the Moon is Illuminated
Aug 1
Waning Crescent
Aug 1
New
Aug 8
First Quarter
Aug 15
Full
Aug 24
Last Quarter

Hourly Weather History & Observations

Time (ACST) Temp. Windchill Dew Point Humidity Pressure Visibility Wind Dir Wind Speed Gust Speed Precip Events Conditions
12:00 AM 55 °F - 36 °F 37% 30.37 in - SE 8.1 mph - -   Clear
12:00 AM 55.4 °F - 35.6 °F 47% 30.36 in 6.2 mi SE 8.1 mph - N/A   Unknown
12:30 AM 54 °F - 36 °F 38% 30.37 in - SE 9.2 mph - -  
12:30 AM 53.6 °F - 35.6 °F 51% 30.36 in 6.2 mi SE 9.2 mph - N/A   Unknown
1:00 AM 55.4 °F - 37.4 °F 51% 30.36 in 6.2 mi ESE 9.2 mph - N/A   Unknown
1:30 AM 55.4 °F - 37.4 °F 51% 30.36 in 6.2 mi ESE 10.4 mph - N/A   Unknown
2:00 AM 53.6 °F - 37.4 °F 54% 30.36 in 6.2 mi ESE 8.1 mph - N/A   Unknown
2:30 AM 54 °F - 38 °F 43% 30.37 in - East 8.1 mph - -  
2:30 AM 53.6 °F - 37.4 °F 54% 30.36 in 6.2 mi East 8.1 mph - N/A   Unknown
3:00 AM 51 °F - 37 °F 47% 30.37 in - ESE 6.9 mph - -   Clear
3:00 AM 51.8 °F - 37.4 °F 58% 30.36 in 6.2 mi ESE 6.9 mph - N/A   Unknown
3:30 AM 52 °F - 37 °F 46% 30.37 in - ESE 8.1 mph - -  
3:30 AM 51.8 °F - 37.4 °F 58% 30.36 in 6.2 mi ESE 8.1 mph - N/A   Unknown
4:30 AM 46.4 °F 42.9 °F 35.6 °F 66% 30.36 in 6.2 mi SE 6.9 mph - N/A   Unknown
5:00 AM 46.4 °F 42.9 °F 35.6 °F 66% 30.36 in 6.2 mi SE 6.9 mph - N/A   Unknown
5:30 AM 46 °F - 36 °F 57% 30.39 in - ESE 6.9 mph - -  
5:30 AM 46.4 °F 42.9 °F 35.6 °F 66% 30.39 in 6.2 mi ESE 6.9 mph - N/A   Unknown
6:00 AM 46 °F - 36 °F 58% 30.39 in - East 5.8 mph - -   Clear
6:00 AM 46.4 °F 43.5 °F 35.6 °F 66% 30.39 in 6.2 mi East 5.8 mph - N/A   Unknown
6:30 AM 42 °F - 34 °F 64% 30.40 in - NNE 1.2 mph - -  
6:30 AM 42.8 °F - 33.8 °F 70% 30.39 in 6.2 mi NNE 1.2 mph - N/A   Unknown
7:00 AM 42.8 °F - 35.6 °F 76% 30.42 in 6.2 mi Calm Calm - N/A   Unknown
7:30 AM 42.8 °F - 35.6 °F 76% 30.42 in 6.2 mi SE 1.2 mph - N/A   Unknown
8:00 AM 48.2 °F - 35.6 °F 62% 30.42 in 6.2 mi SSE 1.2 mph - N/A   Unknown
8:30 AM 52 °F - 36 °F 44% 30.44 in - East 8.1 mph - -  
8:30 AM 51.8 °F - 37.4 °F 58% 30.42 in 6.2 mi East 8.1 mph - N/A   Unknown
9:00 AM 54 °F - 37 °F 40% 30.45 in - East 12.7 mph - -   Clear
9:00 AM 53.6 °F - 37.4 °F 54% 30.45 in - East 12.7 mph - N/A   Clear
9:30 AM 56 °F - 37 °F 36% 30.43 in - East 12.7 mph - -  
9:30 AM 55.4 °F - 37.4 °F 51% 30.45 in - East 12.7 mph - N/A   Clear
10:00 AM 57.2 °F - 37.4 °F 48% 30.45 in - East 13.8 mph - N/A   Clear
10:30 AM 59.0 °F - 35.6 °F 42% 30.45 in - East 15.0 mph - N/A   Clear
11:00 AM 59.0 °F - 35.6 °F 42% 30.45 in 6.2 mi East 13.8 mph - N/A   Unknown
11:30 AM 62 °F - 36 °F 27% 30.42 in - ESE 17.3 mph - -  
11:30 AM 60.8 °F - 35.6 °F 39% 30.42 in 6.2 mi ESE 17.3 mph - N/A   Unknown
12:00 PM 61 °F - 36 °F 27% 30.41 in - ESE 15.0 mph - -   Clear
12:00 PM 60.8 °F - 35.6 °F 39% 30.42 in 6.2 mi ESE 15.0 mph - N/A   Unknown
12:30 PM 62 °F - 35 °F 24% 30.40 in - SE 15.0 mph - -  
12:30 PM 62.6 °F - 33.8 °F 34% 30.42 in 6.2 mi SE 15.0 mph - N/A   Unknown
1:00 PM 62.6 °F - 33.8 °F 34% 30.39 in 6.2 mi SE 16.1 mph - N/A   Unknown
1:30 PM 64.4 °F - 33.8 °F 32% 30.39 in 6.2 mi ESE 13.8 mph - N/A   Unknown
2:00 PM 62.6 °F - 33.8 °F 34% 30.36 in 6.2 mi ESE 15.0 mph - N/A   Unknown
2:30 PM 63 °F - 33 °F 21% 30.35 in - ESE 13.8 mph - -  
2:30 PM 62.6 °F - 32.0 °F 32% 30.36 in 6.2 mi ESE 13.8 mph - N/A   Unknown
3:00 PM 64 °F - 34 °F 21% 30.34 in - ESE 15.0 mph - -   Clear
3:00 PM 64.4 °F - 33.8 °F 32% 30.36 in 6.2 mi ESE 15.0 mph - N/A   Unknown
3:30 PM 64 °F - 33 °F 20% 30.34 in - ESE 15.0 mph - -  
3:30 PM 64.4 °F - 33.8 °F 32% 30.33 in 6.2 mi ESE 15.0 mph - N/A   Unknown
4:00 PM 64.4 °F - 33.8 °F 32% 30.33 in 6.2 mi SE 13.8 mph - N/A   Unknown
4:30 PM 62.6 °F - 32.0 °F 32% 30.33 in 6.2 mi ESE 15.0 mph - N/A   Unknown
5:00 PM 62.6 °F - 32.0 °F 32% 30.33 in 6.2 mi ESE 15.0 mph - N/A   Unknown
5:30 PM 62 °F - 33 °F 22% 30.33 in - SE 16.1 mph - -  
5:30 PM 62.6 °F - 33.8 °F 34% 30.33 in 6.2 mi SE 16.1 mph - N/A   Unknown
6:00 PM 60 °F - 31 °F 22% 30.35 in - ESE 15.0 mph - -   Clear
6:30 PM 59 °F - 31 °F 23% 30.35 in - SE 11.5 mph - -  
6:30 PM 59.0 °F - 30.2 °F 34% 30.36 in 6.2 mi SE 11.5 mph - N/A   Unknown
7:00 PM 57.2 °F - 30.2 °F 36% 30.36 in 6.2 mi ESE 10.4 mph - N/A   Unknown
7:30 PM 55.4 °F - 30.2 °F 38% 30.39 in 6.2 mi ESE 9.2 mph - N/A   Unknown
8:00 PM 53.6 °F - 30.2 °F 41% 30.39 in 6.2 mi SE 6.9 mph - N/A   Unknown
8:30 PM 53 °F - 29 °F 28% 30.39 in - SE 8.1 mph - -  
8:30 PM 51.8 °F - 30.2 °F 44% 30.39 in 6.2 mi SE 8.1 mph - N/A   Unknown
9:00 PM 49 °F - 28 °F 32% 30.40 in - SSE 5.8 mph - -   Clear
9:00 PM 48.2 °F - 28.4 °F 46% 30.39 in 6.2 mi SSE 5.8 mph - N/A   Unknown
9:30 PM 48.2 °F - 28.4 °F 46% 30.42 in 6.2 mi SSE 6.9 mph - N/A   Unknown
10:00 PM 46.4 °F 42.9 °F 28.4 °F 50% 30.42 in 6.2 mi SSE 6.9 mph - N/A   Unknown
10:30 PM 46.4 °F 42.9 °F 28.4 °F 50% 30.42 in 6.2 mi SE 6.9 mph - N/A   Unknown
11:00 PM 44.6 °F 40.7 °F 26.6 °F 49% 30.42 in 6.2 mi SSE 6.9 mph - N/A   Unknown
11:30 PM 45 °F - 28 °F 38% 30.40 in - SSE 5.8 mph - -  
11:30 PM 44.6 °F 41.4 °F 28.4 °F 53% 30.42 in 6.2 mi SSE 5.8 mph - N/A   Unknown